createdAt,value
2018-02-02T00:02:59.616Z,0
2018-02-02T00:12:59.477Z,0
2018-02-02T00:22:59.715Z,0
2018-02-02T00:32:59.843Z,0
2018-02-02T00:42:59.547Z,0
2018-02-02T00:52:59.525Z,0
2018-02-02T01:02:59.587Z,0
2018-02-02T01:12:59.536Z,0
2018-02-02T01:22:59.554Z,0
2018-02-02T01:32:59.504Z,0
2018-02-02T01:42:59.606Z,0
2018-02-02T01:52:59.595Z,0
2018-02-02T02:02:59.521Z,0
2018-02-02T02:12:59.600Z,0
2018-02-02T02:22:59.539Z,0
2018-02-02T02:32:59.628Z,0
2018-02-02T02:42:59.582Z,0
2018-02-02T02:52:59.643Z,0
2018-02-02T03:02:59.637Z,0
2018-02-02T03:12:59.650Z,0
2018-02-02T03:22:59.649Z,0
2018-02-02T03:32:59.707Z,0
2018-02-02T03:42:59.654Z,0
2018-02-02T03:52:59.701Z,0
2018-02-02T04:02:59.725Z,0
2018-02-02T04:12:59.678Z,0
2018-02-02T04:22:59.706Z,0
2018-02-02T04:32:59.649Z,0
2018-02-02T04:42:59.734Z,0
2018-02-02T04:52:59.666Z,0
2018-02-02T05:02:59.756Z,0
2018-02-02T05:12:59.714Z,0
2018-02-02T05:22:59.819Z,0
2018-02-02T05:32:59.753Z,0
2018-02-02T05:42:59.776Z,0
2018-02-02T05:52:59.793Z,0
2018-02-02T06:02:59.736Z,4
2018-02-02T06:12:59.785Z,4
2018-02-02T06:22:59.779Z,4
2018-02-02T06:32:59.823Z,4
2018-02-02T06:42:59.744Z,4
2018-02-02T06:52:59.846Z,8
2018-02-02T07:02:59.769Z,24
2018-02-02T07:12:59.862Z,64
2018-02-02T07:22:59.776Z,104
2018-02-02T07:32:59.772Z,116
2018-02-02T07:42:59.879Z,292
2018-02-02T07:52:59.798Z,380
2018-02-02T08:02:59.837Z,440
2018-02-02T08:12:59.827Z,900
2018-02-02T08:22:59.904Z,660
2018-02-02T08:32:59.849Z,644
2018-02-02T08:42:59.936Z,684
2018-02-02T08:52:59.882Z,1284
2018-02-02T09:02:59.916Z,2076
2018-02-02T09:12:59.894Z,3104
2018-02-02T09:22:59.963Z,3928
2018-02-02T09:33:00.119Z,3408
2018-02-02T09:43:00.042Z,4536
2018-02-02T09:52:59.953Z,6840
2018-02-02T10:02:59.940Z,3452
2018-02-02T10:13:01.186Z,4484
2018-02-02T10:22:59.936Z,4224
2018-02-02T10:33:00.087Z,3848
2018-02-02T10:43:00.040Z,7168
2018-02-02T10:53:00.051Z,10412
2018-02-02T11:03:00.037Z,8460
2018-02-02T11:13:00.073Z,7456
2018-02-02T11:23:00.067Z,8532
2018-02-02T11:33:00.164Z,6224
2018-02-02T11:43:00.358Z,2336
2018-02-02T11:53:00.176Z,2484
2018-02-02T12:03:00.043Z,3692
2018-02-02T12:13:00.124Z,6032
2018-02-02T12:23:00.027Z,6548
2018-02-02T12:33:00.086Z,7652
2018-02-02T12:43:00.147Z,8224
2018-02-02T12:53:00.106Z,8408
2018-02-02T13:03:00.169Z,7300
2018-02-02T13:13:00.163Z,5676
2018-02-02T13:23:00.080Z,7644
2018-02-02T13:33:00.276Z,4224
2018-02-02T13:43:00.131Z,3660
2018-02-02T13:53:00.119Z,4948
2018-02-02T14:03:00.179Z,2336
2018-02-02T14:13:00.209Z,1524
2018-02-02T14:23:00.225Z,1712
2018-02-02T14:33:00.158Z,2060
2018-02-02T14:43:00.257Z,1872
2018-02-02T14:53:00.187Z,1100
2018-02-02T15:03:00.263Z,1628
2018-02-02T15:13:00.207Z,1784
2018-02-02T15:23:00.305Z,1524
2018-02-02T15:33:01.390Z,1320
2018-02-02T15:43:00.331Z,732
2018-02-02T15:53:00.449Z,540
2018-02-02T16:03:00.198Z,472
2018-02-02T16:13:00.297Z,284
2018-02-02T16:23:01.329Z,112
2018-02-02T16:33:00.331Z,28
2018-02-02T16:43:00.267Z,8
2018-02-02T16:53:00.308Z,0
2018-02-02T17:03:00.279Z,4
2018-02-02T17:13:00.428Z,4
2018-02-02T17:23:00.331Z,0
2018-02-02T17:33:00.424Z,4
2018-02-02T17:43:00.347Z,4
2018-02-02T17:53:00.414Z,4
2018-02-02T18:03:00.305Z,4
2018-02-02T18:13:00.424Z,4
2018-02-02T18:23:00.392Z,0
2018-02-02T18:33:00.394Z,4
2018-02-02T18:43:01.474Z,4
2018-02-02T18:53:00.545Z,4
2018-02-02T19:03:00.553Z,4
2018-02-02T19:13:04.167Z,4
2018-02-02T19:23:08.818Z,4
2018-02-02T19:33:00.742Z,0
2018-02-02T19:43:00.487Z,4
2018-02-02T19:53:00.444Z,0
2018-02-02T20:03:00.521Z,4
2018-02-02T20:13:00.475Z,0
2018-02-02T20:23:00.540Z,0
2018-02-02T20:33:00.526Z,0
2018-02-02T20:43:00.623Z,4
2018-02-02T20:53:00.472Z,0
2018-02-02T21:03:00.478Z,0
2018-02-02T21:13:00.688Z,0
2018-02-02T21:23:00.502Z,0
2018-02-02T21:33:00.552Z,0
2018-02-02T21:43:00.530Z,0
2018-02-02T21:53:00.822Z,0
2018-02-02T22:03:00.551Z,0
2018-02-02T22:13:00.604Z,0
2018-02-02T22:23:00.530Z,0
2018-02-02T22:33:00.500Z,0
2018-02-02T22:43:00.594Z,0
2018-02-02T22:53:00.908Z,0
2018-02-02T23:03:00.970Z,4
2018-02-02T23:13:00.631Z,0
2018-02-02T23:23:00.758Z,0
2018-02-02T23:33:00.942Z,0
2018-02-02T23:43:00.853Z,0
2018-02-02T23:53:00.757Z,0
